Time;durP1;ratioP1;P1;durP2;ratioP2;P2;SDS_P1;SDS_P2;PMS_P1;PMS_P2;Temp;Humidity;BMP_temperature;BMP_pressure;BME280_temperature;BME280_humidity;BME280_pressure;Samples;Min_cycle;Max_cycle;Signal;HPM_P1;HPM_P2
2023/09/05 00:00:10;;;;;;;0.50;0.50;;;;;;;19.20;83.71;101729.22;5028202;28;20037;-64
2023/09/05 00:02:38;;;;;;;2.17;0.75;;;;;;;19.24;83.78;101722.56;5026023;28;20037;-63
2023/09/05 00:05:07;;;;;;;1.60;0.73;;;;;;;19.06;83.72;101729.16;5022302;28;20044;-61
2023/09/05 00:07:36;;;;;;;0.93;0.63;;;;;;;19.10;84.31;101727.22;5032993;28;20033;-62
2023/09/05 00:10:04;;;;;;;1.42;0.60;;;;;;;19.08;84.16;101721.34;5039452;28;20710;-63
2023/09/05 00:12:30;;;;;;;1.08;0.77;;;;;;;19.05;84.71;101724.88;5039361;28;20576;-64
2023/09/05 00:14:55;;;;;;;1.45;0.70;;;;;;;19.11;84.51;101723.31;5028652;28;20025;-61
2023/09/05 00:17:21;;;;;;;1.33;0.90;;;;;;;19.07;84.80;101722.50;5028379;28;20027;-63
2023/09/05 00:19:48;;;;;;;0.88;0.80;;;;;;;19.07;84.63;101725.25;5011830;28;20041;-64
2023/09/05 00:22:13;;;;;;;1.45;0.70;;;;;;;19.05;84.42;101728.38;5023821;28;20052;-61
2023/09/05 00:24:39;;;;;;;0.63;0.55;;;;;;;19.03;84.44;101730.69;5027153;28;20111;-64
2023/09/05 00:27:07;;;;;;;0.93;0.43;;;;;;;18.99;84.97;101729.91;5032225;28;20033;-64
2023/09/05 00:29:32;;;;;;;0.75;0.47;;;;;;;19.00;85.27;101720.56;5034880;28;20044;-64
2023/09/05 00:31:59;;;;;;;0.90;0.65;;;;;;;19.00;85.29;101720.56;5012104;28;20431;-62
2023/09/05 00:34:32;;;;;;;1.00;0.52;;;;;;;19.02;84.93;101711.97;5006353;28;20112;-63
2023/09/05 00:37:00;;;;;;;1.45;0.95;;;;;;;19.01;85.07;101722.09;5027185;28;20451;-63
2023/09/05 00:39:27;;;;;;;1.25;0.88;;;;;;;18.88;85.07;101712.72;5022135;28;20025;-62
2023/09/05 00:41:54;;;;;;;1.40;0.90;;;;;;;18.92;84.58;101719.75;5008566;28;20478;-63
2023/09/05 00:44:40;;;;;;;1.63;0.70;;;;;;;18.84;84.81;101722.84;5028074;28;20044;-62
2023/09/05 00:47:05;;;;;;;0.93;0.70;;;;;;;18.81;85.07;101715.44;4964720;28;20050;-62
2023/09/05 00:49:38;;;;;;;1.20;0.85;;;;;;;18.84;84.69;101707.25;4930477;28;20038;-62
2023/09/05 00:52:05;;;;;;;0.68;0.57;;;;;;;18.82;85.23;101714.25;4961427;28;20190;-62
2023/09/05 00:54:32;;;;;;;0.55;0.50;;;;;;;18.76;84.74;101713.06;4949331;28;20134;-64
2023/09/05 00:56:58;;;;;;;1.23;0.75;;;;;;;18.65;85.19;101704.84;4966083;28;20034;-63
2023/09/05 00:59:23;;;;;;;1.00;0.70;;;;;;;18.59;85.44;101700.91;4962566;28;20050;-64
2023/09/05 01:01:49;;;;;;;1.50;0.60;;;;;;;18.55;86.26;101705.56;4948689;28;20193;-63
2023/09/05 01:04:16;;;;;;;0.85;0.60;;;;;;;18.57;86.21;101696.97;4967594;28;20417;-63
2023/09/05 01:07:04;;;;;;;1.08;0.80;;;;;;;18.55;86.08;101702.03;4966331;28;20086;-63
2023/09/05 01:09:39;;;;;;;0.80;0.68;;;;;;;18.51;86.07;101696.56;4965502;28;20039;-63
2023/09/05 01:12:06;;;;;;;0.55;0.55;;;;;;;18.47;86.37;101686.78;4961497;28;20070;-62
2023/09/05 01:14:31;;;;;;;0.82;0.80;;;;;;;18.44;86.82;101682.13;4968214;28;20046;-64
2023/09/05 01:17:01;;;;;;;0.60;0.57;;;;;;;18.47;87.04;101689.53;4968848;28;20102;-64
2023/09/05 01:19:28;;;;;;;0.55;0.50;;;;;;;18.47;86.94;101686.78;4969813;28;20073;-64
2023/09/05 01:22:14;;;;;;;2.15;1.00;;;;;;;18.47;86.80;101675.88;4965572;28;20035;-63
2023/09/05 01:24:42;;;;;;;0.50;0.50;;;;;;;18.46;86.68;101674.34;5000123;28;20511;-63
2023/09/05 01:27:09;;;;;;;2.83;0.70;;;;;;;18.52;86.73;101672.81;5029691;28;20108;-64
2023/09/05 01:29:36;;;;;;;1.00;0.75;;;;;;;18.53;86.36;101669.69;5029426;28;20113;-64
2023/09/05 01:32:09;;;;;;;0.98;0.80;;;;;;;18.51;86.56;101666.56;5029646;28;20034;-63
2023/09/05 01:34:34;;;;;;;1.50;0.88;;;;;;;18.40;86.91;101668.44;5016047;28;20094;-64
2023/09/05 01:36:59;;;;;;;0.70;0.60;;;;;;;18.50;86.58;101664.22;5034114;28;20041;-62
2023/09/05 01:39:25;;;;;;;0.80;0.60;;;;;;;18.50;86.70;101664.22;5035246;28;20091;-63
2023/09/05 01:41:51;;;;;;;1.02;0.63;;;;;;;18.48;86.19;101667.34;5031299;28;20047;-62
2023/09/05 01:44:17;;;;;;;1.40;0.90;;;;;;;18.42;86.60;101665.31;5019507;28;20026;-62
2023/09/05 01:46:42;;;;;;;1.08;0.80;;;;;;;18.38;86.49;101661.78;5037319;28;20037;-63
2023/09/05 01:49:08;;;;;;;1.63;0.98;;;;;;;18.25;86.93;101660.56;5028927;28;20048;-62
2023/09/05 01:51:33;;;;;;;1.15;0.80;;;;;;;18.22;87.38;101656.66;5016162;28;20519;-64
2023/09/05 01:53:58;;;;;;;0.63;0.63;;;;;;;18.22;87.34;101661.31;5032695;28;20041;-63
2023/09/05 01:56:24;;;;;;;1.10;0.52;;;;;;;18.23;87.25;101654.72;5028538;28;20024;-61
2023/09/05 01:58:50;;;;;;;1.90;0.75;;;;;;;18.23;87.19;101658.22;5026464;28;20056;-64
2023/09/05 02:01:15;;;;;;;0.90;0.65;;;;;;;18.20;86.83;101655.44;5041240;28;20025;-64
2023/09/05 02:03:41;;;;;;;0.43;0.40;;;;;;;18.11;86.86;101655.03;5029218;28;20384;-63
2023/09/05 02:06:06;;;;;;;1.30;1.08;;;;;;;18.05;87.69;101665.50;5032623;28;20504;-62
2023/09/05 02:08:34;;;;;;;1.55;0.90;;;;;;;18.13;87.42;101647.25;5029892;28;20045;-63
2023/09/05 02:11:00;;;;;;;2.05;0.65;;;;;;;18.20;87.31;101658.97;5040835;28;20048;-64
2023/09/05 02:13:26;;;;;;;1.13;0.85;;;;;;;18.19;87.49;101659.34;5014790;28;20479;-63
2023/09/05 02:15:52;;;;;;;1.20;0.90;;;;;;;18.25;86.94;101666.03;5029807;28;20043;-63
2023/09/05 02:18:17;;;;;;;1.08;0.90;;;;;;;18.23;87.01;101660.16;5034167;28;20107;-62
2023/09/05 02:20:43;;;;;;;0.85;0.82;;;;;;;18.25;87.05;101660.56;5033123;28;20408;-62
2023/09/05 02:23:08;;;;;;;1.45;0.90;;;;;;;18.24;87.24;101656.25;5014645;28;20055;-62
2023/09/05 02:25:34;;;;;;;1.50;1.00;;;;;;;18.18;87.39;101653.13;5026927;28;20037;-63
2023/09/05 02:27:59;;;;;;;3.92;1.00;;;;;;;18.24;87.17;101648.06;5028189;28;20029;-63
2023/09/05 02:30:26;;;;;;;1.02;0.80;;;;;;;18.27;87.05;101650.06;5028437;28;20021;-62
2023/09/05 02:32:55;;;;;;;0.80;0.70;;;;;;;18.27;86.95;101650.06;5026275;28;20696;-62
2023/09/05 02:35:27;;;;;;;2.53;1.20;;;;;;;18.20;86.89;101650.78;5026069;28;20118;-62
2023/09/05 02:37:55;;;;;;;1.45;1.00;;;;;;;18.17;87.03;101642.59;5020596;28;20041;-64
2023/09/05 02:40:21;;;;;;;3.40;0.80;;;;;;;18.14;86.83;101635.19;5025534;28;20095;-64
2023/09/05 02:42:47;;;;;;;0.80;0.68;;;;;;;18.10;86.96;101637.88;5008199;28;21541;-64
2023/09/05 02:45:13;;;;;;;2.35;0.80;;;;;;;18.04;87.51;101640.19;5031435;28;20030;-62
2023/09/05 02:47:40;;;;;;;1.27;0.70;;;;;;;18.03;87.43;101640.56;5026166;28;20040;-64
2023/09/05 02:50:06;;;;;;;1.70;0.88;;;;;;;18.00;87.62;101646.78;5025123;28;20063;-64
2023/09/05 02:52:32;;;;;;;1.88;0.70;;;;;;;17.96;87.08;101646.00;5010231;28;20029;-62
2023/09/05 02:54:58;;;;;;;1.00;0.85;;;;;;;17.93;87.36;101650.25;5038013;28;20033;-62
2023/09/05 02:57:24;;;;;;;1.40;0.80;;;;;;;17.89;87.94;101644.00;5026937;28;20037;-63
2023/09/05 02:59:53;;;;;;;1.33;0.90;;;;;;;17.90;87.83;101636.59;5010557;28;20489;-62
2023/09/05 03:02:19;;;;;;;1.05;0.75;;;;;;;17.87;88.13;101642.78;5012847;28;20120;-62
2023/09/05 03:04:45;;;;;;;7.07;1.45;;;;;;;17.87;87.64;101634.63;5007733;28;20018;-62
2023/09/05 03:07:10;;;;;;;1.35;0.90;;;;;;;17.89;88.32;101629.56;4999300;28;20040;-62
2023/09/05 03:09:37;;;;;;;0.60;0.60;;;;;;;17.81;88.37;101639.66;4991732;28;20484;-62
2023/09/05 03:12:04;;;;;;;1.52;0.90;;;;;;;17.84;88.43;101638.91;5011534;28;20029;-62
2023/09/05 03:14:31;;;;;;;1.85;1.10;;;;;;;17.90;88.61;101636.59;5011905;28;20037;-63
2023/09/05 03:16:57;;;;;;;1.13;0.77;;;;;;;17.92;88.33;101639.72;5015712;28;20157;-62
2023/09/05 03:19:23;;;;;;;1.70;1.00;;;;;;;17.90;88.11;101637.38;5032781;28;20053;-62
2023/09/05 03:21:52;;;;;;;1.00;0.90;;;;;;;17.66;89.36;101637.19;5011737;28;20024;-63
2023/09/05 03:24:18;;;;;;;4.18;0.80;;;;;;;17.69;89.11;101631.00;5029668;28;20037;-61
2023/09/05 03:26:48;;;;;;;1.30;0.80;;;;;;;17.76;89.18;101634.56;5001860;28;20029;-63
2023/09/05 03:29:14;;;;;;;1.75;0.90;;;;;;;17.80;88.76;101627.19;5027000;28;20029;-63
2023/09/05 03:31:41;;;;;;;1.30;0.90;;;;;;;17.80;88.65;101631.84;5011092;28;20533;-63
2023/09/05 03:34:08;;;;;;;1.27;0.73;;;;;;;17.84;89.04;101625.28;5029705;28;20034;-62
2023/09/05 03:36:35;;;;;;;0.70;0.70;;;;;;;17.76;88.49;101628.31;5021181;28;20045;-62
2023/09/05 03:39:00;;;;;;;1.90;1.15;;;;;;;17.75;88.43;101624.81;5039535;28;20044;-63
2023/09/05 03:41:26;;;;;;;1.02;0.80;;;;;;;17.75;88.72;101622.09;5014623;28;20823;-63
2023/09/05 03:43:51;;;;;;;0.73;0.73;;;;;;;17.76;88.88;101617.44;5039437;28;20064;-64
2023/09/05 03:46:16;;;;;;;2.55;1.33;;;;;;;17.74;89.31;101617.03;5033133;28;20488;-63
2023/09/05 03:48:42;;;;;;;1.60;0.88;;;;;;;17.76;89.47;101620.16;5013028;28;20087;-63
2023/09/05 03:51:08;;;;;;;1.55;1.02;;;;;;;17.78;89.22;101610.44;5022816;28;20108;-61
2023/09/05 03:53:33;;;;;;;1.27;0.88;;;;;;;17.73;89.25;101615.47;5013231;28;20029;-63
2023/09/05 03:55:59;;;;;;;1.75;0.95;;;;;;;17.70;89.02;101606.09;4996372;28;20025;-64
2023/09/05 03:58:24;;;;;;;1.10;0.93;;;;;;;17.74;88.87;101608.84;5012446;28;20508;-64
2023/09/05 04:00:50;;;;;;;1.85;1.00;;;;;;;17.74;88.70;101606.91;5009374;28;20551;-64
2023/09/05 04:03:16;;;;;;;2.83;0.90;;;;;;;17.71;88.97;101609.63;5022971;28;20029;-63
2023/09/05 04:05:41;;;;;;;1.63;1.05;;;;;;;17.64;88.28;101602.16;5010151;28;20469;-64
2023/09/05 04:08:09;;;;;;;2.13;0.95;;;;;;;17.53;88.80;101606.75;5018352;28;20024;-64
2023/09/05 04:10:34;;;;;;;3.00;1.33;;;;;;;17.42;89.13;101594.97;5007302;28;20811;-62
2023/09/05 04:13:00;;;;;;;2.15;1.33;;;;;;;17.36;88.69;101595.69;5021032;28;20025;-62
2023/09/05 04:15:26;;;;;;;1.23;0.80;;;;;;;17.24;89.51;101599.50;5027918;28;20041;-63
2023/09/05 04:17:51;;;;;;;1.35;0.80;;;;;;;17.28;89.36;101603.03;5012483;28;20116;-64
2023/09/05 04:20:18;;;;;;;1.00;0.77;;;;;;;17.27;89.74;101604.19;5012106;28;20183;-65
2023/09/05 04:22:43;;;;;;;0.70;0.55;;;;;;;17.33;89.76;101610.84;5023728;28;20037;-63
2023/09/05 04:25:09;;;;;;;1.67;1.08;;;;;;;17.31;89.63;101601.47;5019540;28;20566;-64
2023/09/05 04:27:36;;;;;;;1.17;0.95;;;;;;;17.29;89.89;101592.91;5001325;28;20137;-63
2023/09/05 04:30:22;;;;;;;2.13;0.93;;;;;;;17.24;89.30;101599.50;5011948;28;20033;-62
2023/09/05 04:32:48;;;;;;;1.75;1.20;;;;;;;17.11;90.13;101584.63;4947940;28;20077;-64
2023/09/05 04:35:16;;;;;;;1.20;0.73;;;;;;;17.07;90.30;101594.69;4958715;28;20115;-64
2023/09/05 04:37:41;;;;;;;0.80;0.80;;;;;;;17.07;90.84;101594.69;4957020;28;20418;-63
2023/09/05 04:40:07;;;;;;;2.08;1.10;;;;;;;17.15;90.21;101599.81;4964778;28;20620;-63
2023/09/05 04:42:33;;;;;;;1.13;1.02;;;;;;;17.22;90.04;101599.09;4933384;28;20043;-64
2023/09/05 04:44:58;;;;;;;1.35;1.00;;;;;;;17.29;90.26;101596.41;4950054;28;20047;-64
2023/09/05 04:47:26;;;;;;;2.95;2.13;;;;;;;17.30;90.00;101595.28;4944190;28;20050;-63
2023/09/05 04:49:56;;;;;;;1.35;1.00;;;;;;;17.22;89.65;101601.81;4949231;28;20111;-64
2023/09/05 04:52:24;;;;;;;1.98;0.80;;;;;;;17.13;90.43;101599.41;4951575;28;20039;-65
2023/09/05 04:54:49;;;;;;;1.10;0.70;;;;;;;17.14;90.08;101605.63;4955969;28;20089;-63
2023/09/05 04:57:16;;;;;;;1.02;0.88;;;;;;;17.14;89.90;101595.53;4954803;28;20513;-62
2023/09/05 04:59:47;;;;;;;2.75;1.20;;;;;;;17.13;90.00;101604.03;4961674;28;20030;-63
2023/09/05 05:02:18;;;;;;;0.88;0.65;;;;;;;17.19;90.23;101602.53;4934451;29;20039;-62
2023/09/05 05:04:43;;;;;;;;;;;;;;;17.22;90.04;101601.81;4955801;28;20047;-64
2023/09/05 05:07:09;;;;;;;1.13;0.88;;;;;;;17.12;89.43;101603.28;4954099;28;19921;-61
2023/09/05 05:09:35;;;;;;;0.65;0.65;;;;;;;17.11;89.86;101600.94;4981607;28;20802;-64
2023/09/05 05:12:01;;;;;;;3.83;1.27;;;;;;;17.10;90.08;101596.66;5006452;28;20036;-62
2023/09/05 05:14:28;;;;;;;1.95;1.10;;;;;;;17.10;90.34;101599.38;5023860;28;20033;-63
2023/09/05 05:16:53;;;;;;;1.42;0.93;;;;;;;17.09;90.46;101598.56;5014659;28;20479;-64
2023/09/05 05:19:22;;;;;;;1.88;1.00;;;;;;;17.04;91.27;101593.50;5003346;28;20044;-60
2023/09/05 05:21:49;;;;;;;1.05;0.80;;;;;;;17.10;90.99;101600.16;5011938;28;20038;-59
2023/09/05 05:24:15;;;;;;;1.17;0.68;;;;;;;17.18;90.71;101595.56;5020402;28;20029;-63
2023/09/05 05:26:41;;;;;;;2.17;1.17;;;;;;;17.21;90.57;101591.31;5015101;28;20041;-63
2023/09/05 05:29:07;;;;;;;1.42;1.00;;;;;;;17.15;90.75;101605.25;5006056;28;20018;-63
2023/09/05 05:31:33;;;;;;;1.70;1.20;;;;;;;17.17;90.65;101602.13;5015571;28;20048;-63
2023/09/05 05:33:59;;;;;;;1.48;1.10;;;;;;;17.22;90.38;101596.38;5024179;28;20033;-62
2023/09/05 05:36:26;;;;;;;1.60;1.30;;;;;;;17.21;90.86;101602.19;5007940;28;20044;-62
2023/09/05 05:38:52;;;;;;;1.42;1.08;;;;;;;17.17;90.90;101602.13;5010266;28;20037;-62
2023/09/05 05:41:17;;;;;;;1.77;1.10;;;;;;;17.17;90.97;101599.41;5018790;28;20029;-62
2023/09/05 05:43:44;;;;;;;1.30;1.02;;;;;;;17.17;91.14;101597.50;5011059;28;20458;-63
2023/09/05 05:46:33;;;;;;;2.40;1.30;;;;;;;17.10;91.30;101593.94;5005194;28;20034;-62
2023/09/05 05:48:58;;;;;;;1.00;0.93;;;;;;;17.16;91.73;101586.97;4993730;28;20046;-62
2023/09/05 05:51:25;;;;;;;1.27;0.80;;;;;;;17.21;91.95;101583.91;4996010;28;20034;-62
2023/09/05 05:53:51;;;;;;;1.70;1.10;;;;;;;17.22;91.96;101601.03;5005418;28;20416;-63
2023/09/05 05:56:17;;;;;;;1.65;1.00;;;;;;;17.30;92.07;101598.00;4989463;28;20042;-63
2023/09/05 05:59:03;;;;;;;1.63;1.33;;;;;;;17.37;92.08;101594.53;4984099;28;20038;-64
2023/09/05 06:01:29;;;;;;;1.23;1.02;;;;;;;17.46;92.17;101597.72;4925029;29;20804;-63
2023/09/05 06:03:55;;;;;;;1.83;1.10;;;;;;;17.47;92.39;101600.06;4923368;29;20052;-62
2023/09/05 06:06:20;;;;;;;1.00;0.90;;;;;;;17.52;92.60;101604.41;4911767;29;20073;-61
2023/09/05 06:08:46;;;;;;;3.22;1.23;;;;;;;17.56;92.63;101603.28;4923632;29;20036;-63
2023/09/05 06:11:11;;;;;;;1.65;1.10;;;;;;;17.61;92.29;101594.75;4922804;29;20028;-63
2023/09/05 06:13:37;;;;;;;1.30;0.90;;;;;;;17.65;92.49;101598.25;4921013;29;20053;-61
2023/09/05 06:16:02;;;;;;;1.55;1.00;;;;;;;17.69;92.85;101596.34;4928758;29;20407;-63
2023/09/05 06:18:28;;;;;;;2.55;1.15;;;;;;;17.72;92.86;101590.16;4924777;29;20043;-63
2023/09/05 06:20:53;;;;;;;3.15;1.33;;;;;;;17.77;93.41;101589.00;4928585;29;20514;-62
2023/09/05 06:23:19;;;;;;;1.50;0.93;;;;;;;17.86;93.36;101590.25;4921489;29;20032;-63
2023/09/05 06:25:44;;;;;;;1.20;1.00;;;;;;;17.96;93.29;101591.47;4929461;29;20051;-61
2023/09/05 06:28:09;;;;;;;1.70;1.38;;;;;;;18.04;93.22;101588.38;4936435;29;20051;-62
2023/09/05 06:30:35;;;;;;;1.33;0.95;;;;;;;18.14;93.35;101580.66;4916117;29;20035;-63
2023/09/05 06:33:00;;;;;;;1.75;1.00;;;;;;;18.27;92.84;101574.47;4922893;29;20040;-63
2023/09/05 06:35:26;;;;;;;1.65;1.20;;;;;;;18.38;93.18;101582.69;4920923;29;20467;-62
2023/09/05 06:37:55;;;;;;;1.13;0.88;;;;;;;18.53;93.49;101571.47;4942772;28;20048;-61
2023/09/05 06:40:23;;;;;;;1.48;1.20;;;;;;;18.72;93.87;101579.28;5032065;28;20034;-63
2023/09/05 06:42:50;;;;;;;3.88;1.30;;;;;;;18.99;93.25;101573.50;5029201;28;20583;-62
2023/09/05 06:45:16;;;;;;;1.85;1.10;;;;;;;19.28;93.05;101573.09;5028367;28;20037;-61
2023/09/05 06:47:42;;;;;;;1.65;1.17;;;;;;;19.58;91.92;101568.03;5025555;28;20025;-60
2023/09/05 06:50:07;;;;;;;2.00;1.20;;;;;;;19.80;90.92;101574.25;5019693;28;20087;-63
2023/09/05 06:52:33;;;;;;;1.55;1.23;;;;;;;20.05;90.52;101582.38;5030867;28;20037;-62
2023/09/05 06:54:59;;;;;;;4.57;1.58;;;;;;;20.14;89.49;101586.25;5028955;28;20080;-62
2023/09/05 06:57:26;;;;;;;2.60;1.38;;;;;;;20.29;88.68;101587.75;5029726;28;20033;-62
2023/09/05 06:59:52;;;;;;;1.77;1.30;;;;;;;20.52;87.85;101584.50;5027876;28;20018;-63
2023/09/05 07:02:17;;;;;;;1.73;1.33;;;;;;;20.65;85.84;101582.91;5030494;28;20590;-63
2023/09/05 07:04:43;;;;;;;2.83;1.42;;;;;;;20.88;85.92;101583.13;5020550;28;20116;-62
2023/09/05 07:07:08;;;;;;;3.55;1.10;;;;;;;21.09;85.39;101588.50;5025773;28;20041;-60
2023/09/05 07:09:34;;;;;;;2.05;1.48;;;;;;;21.30;83.44;101590.28;5019313;28;20033;-63
2023/09/05 07:12:00;;;;;;;1.63;1.40;;;;;;;21.45;83.18;101589.75;5025715;28;20706;-63
2023/09/05 07:14:26;;;;;;;2.40;1.58;;;;;;;21.63;82.74;101597.00;5023996;28;20091;-62
2023/09/05 07:16:52;;;;;;;0.95;0.82;;;;;;;21.68;80.79;101589.13;5017875;28;20042;-63
2023/09/05 07:19:18;;;;;;;2.23;1.47;;;;;;;21.82;80.00;101594.50;5014949;28;20033;-61
2023/09/05 07:21:46;;;;;;;3.47;1.23;;;;;;;22.12;79.43;101591.03;5010967;28;20105;-61
2023/09/05 07:24:13;;;;;;;1.40;1.30;;;;;;;22.11;77.23;101595.75;5013257;28;20033;-62
2023/09/05 07:26:40;;;;;;;2.53;1.50;;;;;;;22.44;76.88;101596.91;5012946;28;20040;-61
2023/09/05 07:29:10;;;;;;;3.75;0.90;;;;;;;22.50;75.82;101598.00;5012577;28;20452;-61
2023/09/05 07:31:37;;;;;;;1.23;0.95;;;;;;;22.59;75.67;101598.28;5023140;28;20044;-62
2023/09/05 07:34:03;;;;;;;1.58;1.42;;;;;;;22.81;74.98;101590.53;5026122;28;20032;-62
2023/09/05 07:36:28;;;;;;;1.58;1.10;;;;;;;22.90;74.58;101597.03;5013005;28;20037;-62
2023/09/05 07:38:54;;;;;;;1.15;0.93;;;;;;;23.11;73.77;101602.22;5025179;28;20041;-62
2023/09/05 07:41:19;;;;;;;2.35;1.10;;;;;;;23.29;72.24;101607.44;5025021;28;20488;-61
2023/09/05 07:43:45;;;;;;;5.55;1.85;;;;;;;23.34;72.69;101608.97;5007828;28;20384;-62
2023/09/05 07:46:11;;;;;;;1.33;1.13;;;;;;;23.22;71.96;101613.06;5024311;28;20465;-61
2023/09/05 07:48:37;;;;;;;1.42;1.00;;;;;;;23.09;72.20;101593.59;5030530;28;20091;-60
2023/09/05 07:51:05;;;;;;;1.88;1.27;;;;;;;23.12;72.51;101606.53;5027284;28;20389;-62
2023/09/05 07:53:32;;;;;;;3.10;1.40;;;;;;;23.47;72.28;101602.44;5024204;28;20076;-61
2023/09/05 07:55:58;;;;;;;1.23;1.00;;;;;;;23.79;70.49;101601.88;5022373;28;20122;-62
2023/09/05 07:58:23;;;;;;;1.65;1.20;;;;;;;23.97;69.83;101608.59;5022298;28;20543;-62
2023/09/05 08:00:49;;;;;;;1.85;1.40;;;;;;;24.22;69.84;101605.38;5019636;28;20133;-63
2023/09/05 08:03:16;;;;;;;1.98;1.15;;;;;;;24.57;67.20;101607.38;5023834;28;20472;-61
2023/09/05 08:05:41;;;;;;;1.85;1.33;;;;;;;24.29;65.44;101594.22;5024444;28;20048;-63
2023/09/05 08:08:07;;;;;;;2.15;0.95;;;;;;;24.26;68.41;101600.56;5017558;28;20037;-62
2023/09/05 08:10:33;;;;;;;2.30;0.90;;;;;;;24.52;68.76;101596.09;5023855;28;20041;-61
2023/09/05 08:12:59;;;;;;;0.95;0.82;;;;;;;24.64;67.14;101598.94;5028996;28;20095;-62
2023/09/05 08:15:25;;;;;;;1.67;1.20;;;;;;;24.64;67.52;101595.44;5026053;28;20022;-62
2023/09/05 08:17:51;;;;;;;1.33;0.90;;;;;;;24.68;66.23;101593.38;5016327;28;20083;-62
2023/09/05 08:20:17;;;;;;;1.63;0.90;;;;;;;24.91;65.50;101596.00;5016390;28;20492;-61
2023/09/05 08:22:44;;;;;;;1.00;0.80;;;;;;;24.95;63.83;101594.69;5000324;28;20045;-61
2023/09/05 08:25:10;;;;;;;2.92;1.15;;;;;;;25.31;64.73;101596.59;4984719;28;20032;-62
2023/09/05 08:27:35;;;;;;;2.22;1.20;;;;;;;25.20;63.47;101593.34;5020555;28;20041;-61
2023/09/05 08:30:01;;;;;;;0.80;0.80;;;;;;;25.36;63.97;101602.38;5012596;28;20030;-61
2023/09/05 08:32:28;;;;;;;1.80;0.98;;;;;;;25.66;63.34;101596.50;5018903;28;20156;-61
2023/09/05 08:34:54;;;;;;;1.50;0.88;;;;;;;25.83;62.83;101603.53;4992061;28;20029;-61
2023/09/05 08:37:20;;;;;;;1.25;0.85;;;;;;;26.16;62.12;101601.44;5029377;28;20040;-62
2023/09/05 08:39:46;;;;;;;1.30;0.98;;;;;;;26.36;61.33;101595.75;5029931;28;20041;-61
2023/09/05 08:42:12;;;;;;;1.35;1.05;;;;;;;26.40;60.95;101602.69;5021136;28;20502;-61
2023/09/05 08:44:40;;;;;;;1.00;0.80;;;;;;;26.49;62.13;101605.59;5020975;28;20181;-61
2023/09/05 08:47:06;;;;;;;0.90;0.80;;;;;;;26.79;60.27;101609.81;5028962;28;20076;-61
2023/09/05 08:49:31;;;;;;;1.50;1.00;;;;;;;27.03;60.15;101613.03;5024738;28;20069;-62
2023/09/05 08:52:02;;;;;;;1.73;1.00;;;;;;;27.38;59.31;101609.91;5029661;28;20090;-61
2023/09/05 08:54:28;;;;;;;1.10;0.90;;;;;;;27.39;58.30;101607.91;5008875;28;20072;-62
2023/09/05 08:56:55;;;;;;;1.15;0.90;;;;;;;27.56;56.54;101607.28;5029300;28;20021;-61
2023/09/05 08:59:21;;;;;;;1.00;0.90;;;;;;;27.64;56.56;101608.59;5029186;28;20059;-61
2023/09/05 09:01:46;;;;;;;2.92;0.82;;;;;;;27.59;55.72;101608.41;5027821;28;20116;-62
2023/09/05 09:04:13;;;;;;;1.75;0.98;;;;;;;27.58;55.41;101604.09;5018056;28;20172;-60
2023/09/05 09:06:42;;;;;;;1.38;1.02;;;;;;;27.78;56.80;101606.56;5026570;28;20021;-62
2023/09/05 09:09:08;;;;;;;1.10;0.90;;;;;;;27.89;55.91;101607.72;5028667;28;20033;-62
2023/09/05 09:11:34;;;;;;;1.17;0.70;;;;;;;27.97;55.86;101603.50;5028652;28;20029;-61
2023/09/05 09:14:00;;;;;;;1.13;0.80;;;;;;;28.03;55.50;101601.69;5012150;28;20042;-61
2023/09/05 09:16:25;;;;;;;1.02;0.70;;;;;;;28.02;55.54;101616.00;5019862;28;20033;-61
2023/09/05 09:19:02;;;;;;;1.95;0.90;;;;;;;28.14;54.99;101610.41;5024089;28;20033;-62
2023/09/05 09:21:29;;;;;;;1.20;0.88;;;;;;;27.98;55.00;101612.59;5023427;28;20511;-61
2023/09/05 09:24:08;;;;;;;1.42;0.73;;;;;;;27.88;55.35;101613.69;5027713;28;20412;-61
2023/09/05 09:26:36;;;;;;;1.48;0.75;;;;;;;28.13;54.56;101608.06;5026359;28;20151;-62
2023/09/05 09:29:07;;;;;;;1.58;0.93;;;;;;;27.91;53.90;101610.03;5022727;28;20064;-61
2023/09/05 09:31:32;;;;;;;1.02;0.90;;;;;;;27.66;54.57;101599.84;5021054;28;20499;-61
2023/09/05 09:33:58;;;;;;;1.20;0.90;;;;;;;28.22;54.78;101599.81;5027758;28;20033;-62
2023/09/05 09:36:32;;;;;;;1.83;0.93;;;;;;;28.57;54.62;101595.72;5030852;28;20591;-62
2023/09/05 09:38:57;;;;;;;1.73;0.80;;;;;;;28.94;53.80;101588.31;5023388;28;20114;-60
2023/09/05 09:41:23;;;;;;;1.58;0.93;;;;;;;29.01;53.56;101590.78;5032532;28;20121;-61
2023/09/05 09:43:54;;;;;;;0.65;0.65;;;;;;;29.14;52.19;101585.91;5030350;28;20025;-60
2023/09/05 09:46:20;;;;;;;1.00;0.77;;;;;;;28.94;52.11;101588.31;5031175;28;20488;-62
2023/09/05 09:48:48;;;;;;;1.50;0.90;;;;;;;29.15;52.10;101590.97;5023173;28;20040;-61
2023/09/05 09:51:13;;;;;;;1.23;0.90;;;;;;;29.49;51.51;101584.41;5026584;28;20391;-61
2023/09/05 09:53:39;;;;;;;1.20;0.70;;;;;;;29.65;51.28;101578.53;5031640;28;20018;-62
2023/09/05 09:56:10;;;;;;;1.50;0.70;;;;;;;29.83;50.95;101566.69;5033183;28;20112;-62
2023/09/05 09:58:38;;;;;;;0.63;0.60;;;;;;;30.06;51.56;101577.88;5032548;28;20045;-62
2023/09/05 10:01:06;;;;;;;1.30;0.95;;;;;;;30.34;51.39;101572.28;5022434;28;20037;-60
2023/09/05 10:03:31;;;;;;;1.38;0.85;;;;;;;30.46;50.53;101572.09;5031768;28;20037;-61
2023/09/05 10:06:00;;;;;;;1.55;0.90;;;;;;;30.31;50.97;101570.44;5032758;28;20041;-62
2023/09/05 10:08:28;;;;;;;1.00;0.90;;;;;;;30.21;49.50;101570.47;5027730;28;20045;-62
2023/09/05 10:10:54;;;;;;;1.35;0.50;;;;;;;30.21;50.35;101578.81;5023177;28;20118;-62
2023/09/05 10:13:24;;;;;;;1.05;0.85;;;;;;;30.32;48.95;101583.88;5017687;28;20116;-62
2023/09/05 10:15:52;;;;;;;1.13;0.40;;;;;;;30.23;50.22;101579.09;5012902;28;20104;-61
2023/09/05 10:18:19;;;;;;;1.05;0.70;;;;;;;30.43;50.74;101577.84;5018045;28;20030;-62
2023/09/05 10:20:46;;;;;;;1.42;0.80;;;;;;;30.73;48.97;101571.19;5028410;28;20033;-61
2023/09/05 10:23:14;;;;;;;1.30;0.80;;;;;;;30.48;49.17;101577.19;5022120;28;20033;-62
2023/09/05 10:25:41;;;;;;;0.65;0.50;;;;;;;30.71;48.92;101587.59;5024500;28;20590;-62
2023/09/05 10:28:07;;;;;;;0.77;0.68;;;;;;;30.98;49.84;101585.47;5024707;28;20495;-62
2023/09/05 10:30:54;;;;;;;0.77;0.70;;;;;;;31.21;48.67;101577.56;5017475;28;20112;-61
2023/09/05 10:33:32;;;;;;;6.00;0.70;;;;;;;31.19;47.87;101566.91;5019100;28;20037;-62
2023/09/05 10:35:58;;;;;;;2.05;0.90;;;;;;;31.21;48.58;101563.66;5011015;28;20030;-62
2023/09/05 10:38:23;;;;;;;1.00;0.65;;;;;;;31.23;46.74;101563.94;5029846;28;20028;-62
2023/09/05 10:40:50;;;;;;;0.90;0.68;;;;;;;30.85;48.07;101567.47;5031908;28;20697;-62
2023/09/05 10:43:20;;;;;;;1.55;0.73;;;;;;;31.05;48.87;101553.69;5020251;28;20675;-60
2023/09/05 10:45:54;;;;;;;0.85;0.60;;;;;;;31.27;48.36;101554.19;5031559;28;20037;-63
2023/09/05 10:48:31;;;;;;;1.60;0.73;;;;;;;31.26;47.32;101549.09;5030133;28;20052;-62
2023/09/05 10:51:05;;;;;;;0.93;0.70;;;;;;;31.43;47.39;101551.00;5031826;28;20029;-63
2023/09/05 10:53:30;;;;;;;0.68;0.50;;;;;;;31.78;47.31;101539.97;5023115;28;20071;-62
2023/09/05 10:55:57;;;;;;;0.50;0.50;;;;;;;31.55;46.69;101549.94;5026367;28;20425;-62
2023/09/05 10:58:41;;;;;;;0.38;0.38;;;;;;;31.58;46.18;101553.78;5024961;28;20558;-62
2023/09/05 11:01:43;;;;;;;1.30;0.70;;;;;;;31.58;47.14;101551.78;5019855;28;20469;-62
2023/09/05 11:04:17;;;;;;;0.57;0.55;;;;;;;31.61;47.68;101541.69;4972531;28;20072;-63
2023/09/05 11:06:52;;;;;;;1.35;0.60;;;;;;;31.79;47.43;101533.91;5029385;28;20044;-62
2023/09/05 11:09:18;;;;;;;0.70;0.60;;;;;;;32.03;45.99;101535.88;5032245;28;20029;-62
2023/09/05 11:11:45;;;;;;;0.47;0.45;;;;;;;31.98;44.91;101539.34;5027760;28;20488;-62
2023/09/05 11:14:10;;;;;;;0.60;0.60;;;;;;;31.98;46.96;101524.16;5025364;28;20714;-62
2023/09/05 11:16:47;;;;;;;0.82;0.63;;;;;;;32.28;45.48;101533.25;5003087;28;20021;-63
2023/09/05 11:19:31;;;;;;;1.05;0.60;;;;;;;32.14;46.86;101527.69;5006230;28;20034;-62
2023/09/05 11:22:21;;;;;;;0.95;0.77;;;;;;;32.09;45.32;101525.59;5029323;28;20048;-62
2023/09/05 11:24:58;;;;;;;0.73;0.50;;;;;;;32.34;45.69;101514.59;5018927;28;20120;-62